BIKF/KEF METAR and TAF weather

Enter ICAO airport designator
Station Type Date Time Source
BIKF METAR 2019/04/21 22:00 UTC NOAA

BIKF 212200Z 24001KT 9999 SCT048 BKN110 04/03 Q1000


Station Type Date Time Source
BIKF Decoded METAR 2019/04/21 22:00 UTC NOAA

Keflavikurflugvollur, Iceland (BIKF) 63-58N 022-36W 54M
Apr 21, 2019 - 06:00 PM EDT / 2019.04.21 2200 UTC
Wind: from the WSW (240 degrees) at 1 MPH (1 KT):0
Visibility: greater than 7 mile(s):0
Sky conditions: mostly cloudy
Temperature: 39 F (4 C)
Dew Point: 37 F (3 C)
Relative Humidity: 93%
Pressure (altimeter): 29.53 in. Hg (1000 hPa)
ob: BIKF 212200Z 24001KT 9999 SCT048 BKN110 04/03 Q1000
cycle: 22

Station Type Date Time Source
BIKF TAF 2019/04/21 21:52 UTC NOAA

TAF BIKF 211943Z 2121/2221 04008KT 9999 FEW025 BKN040 TX08/2215Z TN02/2206Z

Example: see airport list